sensor_id;sensor_type;location;lat;lon;timestamp;temperature;humidity
11221;DHT22;8517;53.546;10.104;2024-03-08T00:00:33;4.80;99.90
11221;DHT22;8517;53.546;10.104;2024-03-08T00:03:00;4.80;99.90
11221;DHT22;8517;53.546;10.104;2024-03-08T00:05:27;4.80;99.90
11221;DHT22;8517;53.546;10.104;2024-03-08T00:07:54;4.70;99.90
11221;DHT22;8517;53.546;10.104;2024-03-08T00:10:23;4.70;99.90
11221;DHT22;8517;53.546;10.104;2024-03-08T00:12:50;4.70;99.90
11221;DHT22;8517;53.546;10.104;2024-03-08T00:15:18;4.70;99.90
11221;DHT22;8517;53.546;10.104;2024-03-08T00:17:46;4.60;99.90
11221;DHT22;8517;53.546;10.104;2024-03-08T00:20:13;4.60;99.90
11221;DHT22;8517;53.546;10.104;2024-03-08T00:22:39;4.60;99.90
11221;DHT22;8517;53.546;10.104;2024-03-08T00:25:07;4.50;99.90
11221;DHT22;8517;53.546;10.104;2024-03-08T00:27:36;4.50;99.90
11221;DHT22;8517;53.546;10.104;2024-03-08T00:30:04;4.50;99.90
11221;DHT22;8517;53.546;10.104;2024-03-08T00:32:31;4.40;99.90
11221;DHT22;8517;53.546;10.104;2024-03-08T00:34:58;4.40;99.90
11221;DHT22;8517;53.546;10.104;2024-03-08T00:37:25;4.40;99.90
11221;DHT22;8517;53.546;10.104;2024-03-08T00:39:52;4.40;99.90
11221;DHT22;8517;53.546;10.104;2024-03-08T00:42:20;4.30;99.90
11221;DHT22;8517;53.546;10.104;2024-03-08T00:44:48;4.30;99.90
11221;DHT22;8517;53.546;10.104;2024-03-08T00:47:16;4.30;99.90
11221;DHT22;8517;53.546;10.104;2024-03-08T00:49:43;4.30;99.90
11221;DHT22;8517;53.546;10.104;2024-03-08T00:52:10;4.30;99.90
11221;DHT22;8517;53.546;10.104;2024-03-08T00:54:37;4.30;99.90
11221;DHT22;8517;53.546;10.104;2024-03-08T00:57:04;4.20;99.90
11221;DHT22;8517;53.546;10.104;2024-03-08T00:59:32;4.20;99.90
11221;DHT22;8517;53.546;10.104;2024-03-08T01:02:00;4.20;99.90
11221;DHT22;8517;53.546;10.104;2024-03-08T01:04:27;4.10;99.90
11221;DHT22;8517;53.546;10.104;2024-03-08T01:06:55;4.20;99.90
11221;DHT22;8517;53.546;10.104;2024-03-08T01:09:22;4.10;99.90
11221;DHT22;8517;53.546;10.104;2024-03-08T01:11:49;4.10;99.90
11221;DHT22;8517;53.546;10.104;2024-03-08T01:14:16;4.10;99.90
11221;DHT22;8517;53.546;10.104;2024-03-08T01:16:43;4.00;99.90
11221;DHT22;8517;53.546;10.104;2024-03-08T01:19:11;4.10;99.90
11221;DHT22;8517;53.546;10.104;2024-03-08T01:21:39;4.10;99.90
11221;DHT22;8517;53.546;10.104;2024-03-08T01:24:05;4.00;99.90
11221;DHT22;8517;53.546;10.104;2024-03-08T01:26:32;4.00;99.90
11221;DHT22;8517;53.546;10.104;2024-03-08T01:28:59;4.00;99.90
11221;DHT22;8517;53.546;10.104;2024-03-08T01:31:28;4.00;99.90
11221;DHT22;8517;53.546;10.104;2024-03-08T01:33:55;4.00;99.90
11221;DHT22;8517;53.546;10.104;2024-03-08T01:36:23;3.90;99.90
11221;DHT22;8517;53.546;10.104;2024-03-08T01:38:50;3.90;99.90
11221;DHT22;8517;53.546;10.104;2024-03-08T01:41:17;3.90;99.90
11221;DHT22;8517;53.546;10.104;2024-03-08T01:43:45;3.90;99.90
11221;DHT22;8517;53.546;10.104;2024-03-08T01:46:15;3.90;99.90
11221;DHT22;8517;53.546;10.104;2024-03-08T01:48:43;3.80;99.90
11221;DHT22;8517;53.546;10.104;2024-03-08T01:51:11;3.80;99.90
11221;DHT22;8517;53.546;10.104;2024-03-08T01:53:42;3.80;99.90
11221;DHT22;8517;53.546;10.104;2024-03-08T01:56:11;3.80;99.90
11221;DHT22;8517;53.546;10.104;2024-03-08T01:58:41;3.80;99.90
11221;DHT22;8517;53.546;10.104;2024-03-08T02:01:11;3.80;99.90
11221;DHT22;8517;53.546;10.104;2024-03-08T02:03:37;3.80;99.90
11221;DHT22;8517;53.546;10.104;2024-03-08T02:06:04;3.70;99.90
11221;DHT22;8517;53.546;10.104;2024-03-08T02:08:35;3.80;99.90
11221;DHT22;8517;53.546;10.104;2024-03-08T02:11:04;3.70;99.90
11221;DHT22;8517;53.546;10.104;2024-03-08T02:13:31;3.70;99.90
11221;DHT22;8517;53.546;10.104;2024-03-08T02:15:58;3.70;99.90
11221;DHT22;8517;53.546;10.104;2024-03-08T02:18:26;3.70;99.90
11221;DHT22;8517;53.546;10.104;2024-03-08T02:20:55;3.70;99.90
11221;DHT22;8517;53.546;10.104;2024-03-08T02:23:23;3.70;99.90
11221;DHT22;8517;53.546;10.104;2024-03-08T02:25:50;3.70;99.90
11221;DHT22;8517;53.546;10.104;2024-03-08T02:28:19;3.60;99.90
11221;DHT22;8517;53.546;10.104;2024-03-08T02:30:46;3.60;99.90
11221;DHT22;8517;53.546;10.104;2024-03-08T02:33:13;3.60;99.90
11221;DHT22;8517;53.546;10.104;2024-03-08T02:35:42;3.60;99.90
11221;DHT22;8517;53.546;10.104;2024-03-08T02:38:12;3.50;99.90
11221;DHT22;8517;53.546;10.104;2024-03-08T02:40:42;3.50;99.90
11221;DHT22;8517;53.546;10.104;2024-03-08T02:43:09;3.50;99.90
11221;DHT22;8517;53.546;10.104;2024-03-08T02:45:35;3.50;99.90
11221;DHT22;8517;53.546;10.104;2024-03-08T02:48:03;3.50;99.90
11221;DHT22;8517;53.546;10.104;2024-03-08T02:50:31;3.40;99.90
11221;DHT22;8517;53.546;10.104;2024-03-08T02:52:58;3.40;99.90
11221;DHT22;8517;53.546;10.104;2024-03-08T02:55:27;3.40;99.90
11221;DHT22;8517;53.546;10.104;2024-03-08T02:57:55;3.50;99.90
11221;DHT22;8517;53.546;10.104;2024-03-08T03:00:22;3.50;99.90
11221;DHT22;8517;53.546;10.104;2024-03-08T03:02:50;3.40;99.90
11221;DHT22;8517;53.546;10.104;2024-03-08T03:05:19;3.40;99.90
11221;DHT22;8517;53.546;10.104;2024-03-08T03:07:46;3.40;99.90
11221;DHT22;8517;53.546;10.104;2024-03-08T03:10:14;3.30;99.90
11221;DHT22;8517;53.546;10.104;2024-03-08T03:12:44;3.30;99.90
11221;DHT22;8517;53.546;10.104;2024-03-08T03:15:11;3.30;99.90
11221;DHT22;8517;53.546;10.104;2024-03-08T03:17:39;3.30;99.90
11221;DHT22;8517;53.546;10.104;2024-03-08T03:20:07;3.30;99.90
11221;DHT22;8517;53.546;10.104;2024-03-08T03:22:38;3.30;99.90
11221;DHT22;8517;53.546;10.104;2024-03-08T03:25:07;3.20;99.90
11221;DHT22;8517;53.546;10.104;2024-03-08T03:27:35;3.20;99.90
11221;DHT22;8517;53.546;10.104;2024-03-08T03:30:04;3.20;99.90
11221;DHT22;8517;53.546;10.104;2024-03-08T03:32:59;3.10;99.90
11221;DHT22;8517;53.546;10.104;2024-03-08T03:35:27;3.20;99.90
11221;DHT22;8517;53.546;10.104;2024-03-08T03:37:54;3.10;99.90
11221;DHT22;8517;53.546;10.104;2024-03-08T03:40:31;3.10;99.90
11221;DHT22;8517;53.546;10.104;2024-03-08T03:42:58;3.10;99.90
11221;DHT22;8517;53.546;10.104;2024-03-08T03:45:25;3.10;99.90
11221;DHT22;8517;53.546;10.104;2024-03-08T03:47:52;3.10;99.90
11221;DHT22;8517;53.546;10.104;2024-03-08T03:50:20;3.10;99.90
11221;DHT22;8517;53.546;10.104;2024-03-08T03:52:47;3.00;99.90
11221;DHT22;8517;53.546;10.104;2024-03-08T03:55:15;3.00;99.90
11221;DHT22;8517;53.546;10.104;2024-03-08T03:57:42;3.00;99.90
11221;DHT22;8517;53.546;10.104;2024-03-08T04:00:11;2.90;99.90
11221;DHT22;8517;53.546;10.104;2024-03-08T04:02:38;2.90;99.90
11221;DHT22;8517;53.546;10.104;2024-03-08T04:05:07;2.90;99.90
11221;DHT22;8517;53.546;10.104;2024-03-08T04:07:37;2.90;99.90
11221;DHT22;8517;53.546;10.104;2024-03-08T04:10:04;2.90;99.90
11221;DHT22;8517;53.546;10.104;2024-03-08T04:12:32;2.90;99.90
11221;DHT22;8517;53.546;10.104;2024-03-08T04:14:59;2.90;99.90
11221;DHT22;8517;53.546;10.104;2024-03-08T04:17:26;2.90;99.90
11221;DHT22;8517;53.546;10.104;2024-03-08T04:19:53;2.90;99.90
11221;DHT22;8517;53.546;10.104;2024-03-08T04:22:20;2.90;99.90
11221;DHT22;8517;53.546;10.104;2024-03-08T04:24:49;2.90;99.90
11221;DHT22;8517;53.546;10.104;2024-03-08T04:27:16;2.90;99.90
11221;DHT22;8517;53.546;10.104;2024-03-08T04:29:43;2.80;99.90
11221;DHT22;8517;53.546;10.104;2024-03-08T04:32:10;2.90;99.90
11221;DHT22;8517;53.546;10.104;2024-03-08T04:34:39;2.90;99.90
11221;DHT22;8517;53.546;10.104;2024-03-08T04:37:05;2.80;99.90
11221;DHT22;8517;53.546;10.104;2024-03-08T04:39:32;2.80;99.90
11221;DHT22;8517;53.546;10.104;2024-03-08T04:42:02;2.80;99.90
11221;DHT22;8517;53.546;10.104;2024-03-08T04:44:30;2.80;99.90
11221;DHT22;8517;53.546;10.104;2024-03-08T04:46:57;2.80;99.90
11221;DHT22;8517;53.546;10.104;2024-03-08T04:49:23;2.80;99.90
11221;DHT22;8517;53.546;10.104;2024-03-08T04:51:50;2.80;99.90
11221;DHT22;8517;53.546;10.104;2024-03-08T04:54:17;2.80;99.90
11221;DHT22;8517;53.546;10.104;2024-03-08T04:56:44;2.80;99.90
11221;DHT22;8517;53.546;10.104;2024-03-08T04:59:13;2.80;99.90
11221;DHT22;8517;53.546;10.104;2024-03-08T05:01:39;2.80;99.90
11221;DHT22;8517;53.546;10.104;2024-03-08T05:04:06;2.70;99.90
11221;DHT22;8517;53.546;10.104;2024-03-08T05:06:33;2.70;99.90
11221;DHT22;8517;53.546;10.104;2024-03-08T05:09:00;2.70;99.90
11221;DHT22;8517;53.546;10.104;2024-03-08T05:11:38;2.70;99.90
11221;DHT22;8517;53.546;10.104;2024-03-08T05:14:05;2.70;99.90
11221;DHT22;8517;53.546;10.104;2024-03-08T05:16:33;2.70;99.90
11221;DHT22;8517;53.546;10.104;2024-03-08T05:19:00;2.70;99.90
11221;DHT22;8517;53.546;10.104;2024-03-08T05:21:27;2.70;99.90
11221;DHT22;8517;53.546;10.104;2024-03-08T05:23:54;2.60;99.90
11221;DHT22;8517;53.546;10.104;2024-03-08T05:26:21;2.70;99.90
11221;DHT22;8517;53.546;10.104;2024-03-08T05:28:48;2.70;99.90
11221;DHT22;8517;53.546;10.104;2024-03-08T05:31:19;2.60;99.90
11221;DHT22;8517;53.546;10.104;2024-03-08T05:33:47;2.60;99.90
11221;DHT22;8517;53.546;10.104;2024-03-08T05:36:14;2.60;99.90
11221;DHT22;8517;53.546;10.104;2024-03-08T05:38:42;2.60;99.90
11221;DHT22;8517;53.546;10.104;2024-03-08T05:41:09;2.60;99.90
11221;DHT22;8517;53.546;10.104;2024-03-08T05:43:36;2.60;99.90
11221;DHT22;8517;53.546;10.104;2024-03-08T05:46:03;2.60;99.90
11221;DHT22;8517;53.546;10.104;2024-03-08T05:48:30;2.60;99.90
11221;DHT22;8517;53.546;10.104;2024-03-08T05:51:00;2.60;99.90
11221;DHT22;8517;53.546;10.104;2024-03-08T05:53:27;2.60;99.90
11221;DHT22;8517;53.546;10.104;2024-03-08T05:55:57;2.60;99.90
11221;DHT22;8517;53.546;10.104;2024-03-08T05:58:24;2.60;99.90
11221;DHT22;8517;53.546;10.104;2024-03-08T06:00:50;2.60;99.90
11221;DHT22;8517;53.546;10.104;2024-03-08T06:03:17;2.60;99.90
11221;DHT22;8517;53.546;10.104;2024-03-08T06:05:47;2.70;99.90
11221;DHT22;8517;53.546;10.104;2024-03-08T06:08:16;2.70;99.90
11221;DHT22;8517;53.546;10.104;2024-03-08T06:10:44;2.70;99.90
11221;DHT22;8517;53.546;10.104;2024-03-08T06:13:14;2.70;99.90
11221;DHT22;8517;53.546;10.104;2024-03-08T06:15:41;2.70;99.90
11221;DHT22;8517;53.546;10.104;2024-03-08T06:18:07;2.70;99.90
11221;DHT22;8517;53.546;10.104;2024-03-08T06:20:39;2.70;99.90
11221;DHT22;8517;53.546;10.104;2024-03-08T06:23:09;2.80;99.90
11221;DHT22;8517;53.546;10.104;2024-03-08T06:25:37;2.80;99.90
11221;DHT22;8517;53.546;10.104;2024-03-08T06:28:05;2.90;99.90
11221;DHT22;8517;53.546;10.104;2024-03-08T06:30:32;3.00;99.90
11221;DHT22;8517;53.546;10.104;2024-03-08T06:33:04;3.00;99.90
11221;DHT22;8517;53.546;10.104;2024-03-08T06:35:34;3.10;99.90
11221;DHT22;8517;53.546;10.104;2024-03-08T06:38:03;3.20;99.90
11221;DHT22;8517;53.546;10.104;2024-03-08T06:40:33;3.20;99.90
11221;DHT22;8517;53.546;10.104;2024-03-08T06:43:01;3.30;99.90
11221;DHT22;8517;53.546;10.104;2024-03-08T06:45:31;3.30;99.90
11221;DHT22;8517;53.546;10.104;2024-03-08T06:47:58;3.40;99.90
11221;DHT22;8517;53.546;10.104;2024-03-08T06:50:25;3.50;99.90
11221;DHT22;8517;53.546;10.104;2024-03-08T06:52:52;3.60;99.90
11221;DHT22;8517;53.546;10.104;2024-03-08T06:55:19;3.70;99.90
11221;DHT22;8517;53.546;10.104;2024-03-08T06:57:46;3.80;99.90
11221;DHT22;8517;53.546;10.104;2024-03-08T07:00:15;3.90;99.90
11221;DHT22;8517;53.546;10.104;2024-03-08T07:02:46;4.00;99.90
11221;DHT22;8517;53.546;10.104;2024-03-08T07:05:14;4.10;99.90
11221;DHT22;8517;53.546;10.104;2024-03-08T07:07:42;4.20;99.90
11221;DHT22;8517;53.546;10.104;2024-03-08T07:10:09;4.30;99.90
11221;DHT22;8517;53.546;10.104;2024-03-08T07:12:39;4.40;99.90
11221;DHT22;8517;53.546;10.104;2024-03-08T07:15:06;4.50;99.90
11221;DHT22;8517;53.546;10.104;2024-03-08T07:17:35;4.50;99.90
11221;DHT22;8517;53.546;10.104;2024-03-08T07:20:02;4.60;99.90
11221;DHT22;8517;53.546;10.104;2024-03-08T07:22:33;4.70;99.90
11221;DHT22;8517;53.546;10.104;2024-03-08T07:25:00;4.80;99.90
11221;DHT22;8517;53.546;10.104;2024-03-08T07:27:46;4.80;99.90
11221;DHT22;8517;53.546;10.104;2024-03-08T07:30:13;4.90;99.90
11221;DHT22;8517;53.546;10.104;2024-03-08T07:33:01;4.90;99.90
11221;DHT22;8517;53.546;10.104;2024-03-08T07:35:28;5.00;99.90
11221;DHT22;8517;53.546;10.104;2024-03-08T07:37:55;5.00;99.90
11221;DHT22;8517;53.546;10.104;2024-03-08T07:40:22;5.10;99.90
11221;DHT22;8517;53.546;10.104;2024-03-08T07:42:49;5.10;99.90
11221;DHT22;8517;53.546;10.104;2024-03-08T07:45:16;5.10;99.90
11221;DHT22;8517;53.546;10.104;2024-03-08T07:47:47;5.20;99.90
11221;DHT22;8517;53.546;10.104;2024-03-08T07:50:15;5.20;99.90
11221;DHT22;8517;53.546;10.104;2024-03-08T07:52:42;5.20;99.90
11221;DHT22;8517;53.546;10.104;2024-03-08T07:55:09;5.20;99.90
11221;DHT22;8517;53.546;10.104;2024-03-08T07:57:39;5.20;99.90
11221;DHT22;8517;53.546;10.104;2024-03-08T08:00:06;5.30;99.90
11221;DHT22;8517;53.546;10.104;2024-03-08T08:02:34;5.30;99.90
11221;DHT22;8517;53.546;10.104;2024-03-08T08:05:01;5.40;99.90
11221;DHT22;8517;53.546;10.104;2024-03-08T08:07:29;5.40;99.90
11221;DHT22;8517;53.546;10.104;2024-03-08T08:09:56;5.50;99.90
11221;DHT22;8517;53.546;10.104;2024-03-08T08:12:22;5.60;99.90
11221;DHT22;8517;53.546;10.104;2024-03-08T08:14:50;5.70;99.90
11221;DHT22;8517;53.546;10.104;2024-03-08T08:17:17;5.90;99.90
11221;DHT22;8517;53.546;10.104;2024-03-08T08:19:43;6.00;99.90
11221;DHT22;8517;53.546;10.104;2024-03-08T08:22:10;6.10;99.90
11221;DHT22;8517;53.546;10.104;2024-03-08T08:24:38;6.30;99.90
11221;DHT22;8517;53.546;10.104;2024-03-08T08:27:05;6.40;99.90
11221;DHT22;8517;53.546;10.104;2024-03-08T08:29:34;6.60;99.90
11221;DHT22;8517;53.546;10.104;2024-03-08T08:32:02;6.70;99.90
11221;DHT22;8517;53.546;10.104;2024-03-08T08:34:29;6.80;99.90
11221;DHT22;8517;53.546;10.104;2024-03-08T08:36:55;7.00;99.90
11221;DHT22;8517;53.546;10.104;2024-03-08T08:39:22;7.10;99.90
11221;DHT22;8517;53.546;10.104;2024-03-08T08:41:52;7.30;99.90
11221;DHT22;8517;53.546;10.104;2024-03-08T08:44:19;7.40;99.90
11221;DHT22;8517;53.546;10.104;2024-03-08T08:46:46;7.60;99.90
11221;DHT22;8517;53.546;10.104;2024-03-08T08:49:19;7.80;99.90
11221;DHT22;8517;53.546;10.104;2024-03-08T08:51:49;8.00;99.90
11221;DHT22;8517;53.546;10.104;2024-03-08T08:54:16;8.20;99.90
11221;DHT22;8517;53.546;10.104;2024-03-08T08:56:43;8.40;99.90
11221;DHT22;8517;53.546;10.104;2024-03-08T08:59:11;8.60;99.90
11221;DHT22;8517;53.546;10.104;2024-03-08T09:01:39;8.70;99.90
11221;DHT22;8517;53.546;10.104;2024-03-08T09:04:06;8.80;99.90
11221;DHT22;8517;53.546;10.104;2024-03-08T09:06:33;8.90;99.90
11221;DHT22;8517;53.546;10.104;2024-03-08T09:09:01;9.10;99.90
11221;DHT22;8517;53.546;10.104;2024-03-08T09:11:30;9.10;99.90
11221;DHT22;8517;53.546;10.104;2024-03-08T09:13:57;9.20;99.90
11221;DHT22;8517;53.546;10.104;2024-03-08T09:16:25;9.20;99.90
11221;DHT22;8517;53.546;10.104;2024-03-08T09:18:52;9.30;99.90
11221;DHT22;8517;53.546;10.104;2024-03-08T09:21:19;9.40;99.90
11221;DHT22;8517;53.546;10.104;2024-03-08T09:23:47;9.60;99.90
11221;DHT22;8517;53.546;10.104;2024-03-08T09:26:14;9.70;99.90
11221;DHT22;8517;53.546;10.104;2024-03-08T09:28:41;9.70;99.90
11221;DHT22;8517;53.546;10.104;2024-03-08T09:31:08;9.80;99.90
11221;DHT22;8517;53.546;10.104;2024-03-08T09:33:38;9.90;99.90
11221;DHT22;8517;53.546;10.104;2024-03-08T09:36:06;9.90;99.90
11221;DHT22;8517;53.546;10.104;2024-03-08T09:38:34;9.80;99.90
11221;DHT22;8517;53.546;10.104;2024-03-08T09:41:01;9.80;99.90
11221;DHT22;8517;53.546;10.104;2024-03-08T09:43:29;9.70;99.90
11221;DHT22;8517;53.546;10.104;2024-03-08T09:45:57;9.80;99.90
11221;DHT22;8517;53.546;10.104;2024-03-08T09:48:25;9.80;99.90
11221;DHT22;8517;53.546;10.104;2024-03-08T09:50:54;9.80;99.90
11221;DHT22;8517;53.546;10.104;2024-03-08T09:53:22;9.90;99.90
11221;DHT22;8517;53.546;10.104;2024-03-08T09:55:50;9.90;99.90
11221;DHT22;8517;53.546;10.104;2024-03-08T09:58:17;10.10;99.90
11221;DHT22;8517;53.546;10.104;2024-03-08T10:01:02;10.10;99.90
11221;DHT22;8517;53.546;10.104;2024-03-08T10:03:32;10.10;99.90
11221;DHT22;8517;53.546;10.104;2024-03-08T10:06:02;10.10;99.90
11221;DHT22;8517;53.546;10.104;2024-03-08T10:08:29;10.10;99.90
11221;DHT22;8517;53.546;10.104;2024-03-08T10:10:56;10.00;99.90
11221;DHT22;8517;53.546;10.104;2024-03-08T10:13:25;10.00;99.90
11221;DHT22;8517;53.546;10.104;2024-03-08T10:15:52;10.00;99.90
11221;DHT22;8517;53.546;10.104;2024-03-08T10:18:19;10.10;99.90
11221;DHT22;8517;53.546;10.104;2024-03-08T10:21:03;10.10;99.90
11221;DHT22;8517;53.546;10.104;2024-03-08T10:23:35;10.20;99.90
11221;DHT22;8517;53.546;10.104;2024-03-08T10:26:15;10.30;99.90
11221;DHT22;8517;53.546;10.104;2024-03-08T10:28:45;10.30;99.90
11221;DHT22;8517;53.546;10.104;2024-03-08T10:31:13;10.30;99.90
11221;DHT22;8517;53.546;10.104;2024-03-08T10:33:40;10.20;99.90
11221;DHT22;8517;53.546;10.104;2024-03-08T10:36:09;10.20;99.90
11221;DHT22;8517;53.546;10.104;2024-03-08T10:38:36;10.20;99.90
11221;DHT22;8517;53.546;10.104;2024-03-08T10:41:05;10.20;99.90
11221;DHT22;8517;53.546;10.104;2024-03-08T10:43:40;10.20;99.90
11221;DHT22;8517;53.546;10.104;2024-03-08T10:46:16;10.30;99.90
11221;DHT22;8517;53.546;10.104;2024-03-08T10:48:52;10.30;99.90
11221;DHT22;8517;53.546;10.104;2024-03-08T10:51:23;10.30;99.90
11221;DHT22;8517;53.546;10.104;2024-03-08T10:53:52;10.40;99.90
11221;DHT22;8517;53.546;10.104;2024-03-08T10:56:21;10.40;99.90
11221;DHT22;8517;53.546;10.104;2024-03-08T10:58:48;10.40;99.90
11221;DHT22;8517;53.546;10.104;2024-03-08T11:01:15;10.50;99.90
11221;DHT22;8517;53.546;10.104;2024-03-08T11:03:47;10.50;99.90
11221;DHT22;8517;53.546;10.104;2024-03-08T11:06:19;10.50;99.90
11221;DHT22;8517;53.546;10.104;2024-03-08T11:08:49;10.50;99.90
11221;DHT22;8517;53.546;10.104;2024-03-08T11:11:27;10.60;99.90
11221;DHT22;8517;53.546;10.104;2024-03-08T11:13:56;10.70;99.90
11221;DHT22;8517;53.546;10.104;2024-03-08T11:16:37;10.80;99.90
11221;DHT22;8517;53.546;10.104;2024-03-08T11:19:23;10.90;99.90
11221;DHT22;8517;53.546;10.104;2024-03-08T11:21:57;11.00;99.90
11221;DHT22;8517;53.546;10.104;2024-03-08T11:24:25;11.10;99.90
11221;DHT22;8517;53.546;10.104;2024-03-08T11:26:57;11.30;99.90
11221;DHT22;8517;53.546;10.104;2024-03-08T11:29:37;11.30;99.90
11221;DHT22;8517;53.546;10.104;2024-03-08T11:32:07;11.30;99.90
11221;DHT22;8517;53.546;10.104;2024-03-08T11:34:35;11.30;99.90
11221;DHT22;8517;53.546;10.104;2024-03-08T11:37:04;11.30;99.90
11221;DHT22;8517;53.546;10.104;2024-03-08T11:39:33;11.30;99.90
11221;DHT22;8517;53.546;10.104;2024-03-08T11:42:00;11.40;99.90
11221;DHT22;8517;53.546;10.104;2024-03-08T11:44:27;11.40;99.90
11221;DHT22;8517;53.546;10.104;2024-03-08T11:46:55;11.30;99.90
11221;DHT22;8517;53.546;10.104;2024-03-08T11:49:21;11.30;99.90
11221;DHT22;8517;53.546;10.104;2024-03-08T11:51:51;11.50;99.90
11221;DHT22;8517;53.546;10.104;2024-03-08T11:54:19;11.70;99.90
11221;DHT22;8517;53.546;10.104;2024-03-08T11:56:48;12.00;99.90
11221;DHT22;8517;53.546;10.104;2024-03-08T11:59:18;12.20;99.90
11221;DHT22;8517;53.546;10.104;2024-03-08T12:01:58;12.30;99.90
11221;DHT22;8517;53.546;10.104;2024-03-08T12:04:25;12.30;99.90
11221;DHT22;8517;53.546;10.104;2024-03-08T12:06:52;12.40;99.90
11221;DHT22;8517;53.546;10.104;2024-03-08T12:09:19;12.40;99.90
11221;DHT22;8517;53.546;10.104;2024-03-08T12:11:52;12.50;99.90
11221;DHT22;8517;53.546;10.104;2024-03-08T12:14:19;12.50;99.90
11221;DHT22;8517;53.546;10.104;2024-03-08T12:16:46;12.60;99.90
11221;DHT22;8517;53.546;10.104;2024-03-08T12:19:14;12.80;99.90
11221;DHT22;8517;53.546;10.104;2024-03-08T12:21:42;13.20;99.90
11221;DHT22;8517;53.546;10.104;2024-03-08T12:24:15;13.50;99.90
11221;DHT22;8517;53.546;10.104;2024-03-08T12:26:45;13.70;99.90
11221;DHT22;8517;53.546;10.104;2024-03-08T12:29:22;13.90;99.90
11221;DHT22;8517;53.546;10.104;2024-03-08T12:31:55;14.10;99.90
11221;DHT22;8517;53.546;10.104;2024-03-08T12:34:24;14.20;99.90
11221;DHT22;8517;53.546;10.104;2024-03-08T12:36:55;14.20;99.90
11221;DHT22;8517;53.546;10.104;2024-03-08T12:39:23;14.10;99.90
11221;DHT22;8517;53.546;10.104;2024-03-08T12:41:55;13.90;98.90
11221;DHT22;8517;53.546;10.104;2024-03-08T12:44:24;13.80;99.90
11221;DHT22;8517;53.546;10.104;2024-03-08T12:46:51;13.60;99.90
11221;DHT22;8517;53.546;10.104;2024-03-08T12:49:38;13.40;99.90
11221;DHT22;8517;53.546;10.104;2024-03-08T12:52:09;13.20;99.90
11221;DHT22;8517;53.546;10.104;2024-03-08T12:54:37;13.10;99.90
11221;DHT22;8517;53.546;10.104;2024-03-08T12:57:04;12.90;99.90
11221;DHT22;8517;53.546;10.104;2024-03-08T12:59:32;12.80;99.90
11221;DHT22;8517;53.546;10.104;2024-03-08T13:01:59;12.70;99.90
11221;DHT22;8517;53.546;10.104;2024-03-08T13:04:26;12.80;99.90
11221;DHT22;8517;53.546;10.104;2024-03-08T13:06:53;12.90;99.90
11221;DHT22;8517;53.546;10.104;2024-03-08T13:09:21;12.90;99.90
11221;DHT22;8517;53.546;10.104;2024-03-08T13:11:49;12.80;99.90
11221;DHT22;8517;53.546;10.104;2024-03-08T13:14:42;12.80;99.90
11221;DHT22;8517;53.546;10.104;2024-03-08T13:17:09;12.80;99.90
11221;DHT22;8517;53.546;10.104;2024-03-08T13:19:38;12.90;99.90
11221;DHT22;8517;53.546;10.104;2024-03-08T13:23:02;12.90;99.90
11221;DHT22;8517;53.546;10.104;2024-03-08T13:25:18;12.90;99.90
11221;DHT22;8517;53.546;10.104;2024-03-08T13:27:45;12.80;99.30
11221;DHT22;8517;53.546;10.104;2024-03-08T13:30:15;12.80;99.90
11221;DHT22;8517;53.546;10.104;2024-03-08T13:32:44;12.80;99.90
11221;DHT22;8517;53.546;10.104;2024-03-08T13:35:11;12.80;99.90
11221;DHT22;8517;53.546;10.104;2024-03-08T13:37:39;12.80;99.90
11221;DHT22;8517;53.546;10.104;2024-03-08T13:40:07;12.90;99.90
11221;DHT22;8517;53.546;10.104;2024-03-08T13:42:36;12.90;99.80
11221;DHT22;8517;53.546;10.104;2024-03-08T13:45:05;12.90;99.90
11221;DHT22;8517;53.546;10.104;2024-03-08T13:47:38;12.80;99.90
11221;DHT22;8517;53.546;10.104;2024-03-08T13:50:07;12.60;99.90
11221;DHT22;8517;53.546;10.104;2024-03-08T13:52:37;12.40;99.90
11221;DHT22;8517;53.546;10.104;2024-03-08T13:55:04;12.30;99.90
11221;DHT22;8517;53.546;10.104;2024-03-08T13:57:31;12.20;99.90
11221;DHT22;8517;53.546;10.104;2024-03-08T14:00:03;12.10;99.90
11221;DHT22;8517;53.546;10.104;2024-03-08T14:02:32;12.10;99.90
11221;DHT22;8517;53.546;10.104;2024-03-08T14:05:00;12.00;99.90
11221;DHT22;8517;53.546;10.104;2024-03-08T14:07:28;12.00;99.50
11221;DHT22;8517;53.546;10.104;2024-03-08T14:09:55;11.90;99.30
11221;DHT22;8517;53.546;10.104;2024-03-08T14:12:25;11.80;98.70
11221;DHT22;8517;53.546;10.104;2024-03-08T14:14:52;11.70;98.70
11221;DHT22;8517;53.546;10.104;2024-03-08T14:17:19;11.70;98.90
11221;DHT22;8517;53.546;10.104;2024-03-08T14:19:45;11.60;99.30
11221;DHT22;8517;53.546;10.104;2024-03-08T14:22:13;11.50;99.00
11221;DHT22;8517;53.546;10.104;2024-03-08T14:24:40;11.50;99.90
11221;DHT22;8517;53.546;10.104;2024-03-08T14:27:08;11.50;99.90
11221;DHT22;8517;53.546;10.104;2024-03-08T14:29:44;11.50;99.90
11221;DHT22;8517;53.546;10.104;2024-03-08T14:32:11;11.50;99.90
11221;DHT22;8517;53.546;10.104;2024-03-08T14:34:39;11.40;99.90
11221;DHT22;8517;53.546;10.104;2024-03-08T14:37:06;11.40;99.50
11221;DHT22;8517;53.546;10.104;2024-03-08T14:39:38;11.50;99.20
11221;DHT22;8517;53.546;10.104;2024-03-08T14:42:05;11.50;99.60
11221;DHT22;8517;53.546;10.104;2024-03-08T14:44:34;11.50;99.90
11221;DHT22;8517;53.546;10.104;2024-03-08T14:47:01;11.50;99.90
11221;DHT22;8517;53.546;10.104;2024-03-08T14:49:31;11.50;99.90
11221;DHT22;8517;53.546;10.104;2024-03-08T14:52:01;11.50;99.90
11221;DHT22;8517;53.546;10.104;2024-03-08T14:54:29;11.50;99.90
11221;DHT22;8517;53.546;10.104;2024-03-08T14:56:58;11.50;98.80
11221;DHT22;8517;53.546;10.104;2024-03-08T14:59:24;11.50;97.80
11221;DHT22;8517;53.546;10.104;2024-03-08T15:01:54;11.50;97.80
11221;DHT22;8517;53.546;10.104;2024-03-08T15:04:21;11.50;98.80
11221;DHT22;8517;53.546;10.104;2024-03-08T15:06:49;11.50;99.20
11221;DHT22;8517;53.546;10.104;2024-03-08T15:09:17;11.50;99.80
11221;DHT22;8517;53.546;10.104;2024-03-08T15:11:45;11.50;98.80
11221;DHT22;8517;53.546;10.104;2024-03-08T15:14:13;11.50;99.30
11221;DHT22;8517;53.546;10.104;2024-03-08T15:16:40;11.50;99.80
11221;DHT22;8517;53.546;10.104;2024-03-08T15:19:08;11.50;99.90
11221;DHT22;8517;53.546;10.104;2024-03-08T15:21:37;11.60;99.90
11221;DHT22;8517;53.546;10.104;2024-03-08T15:24:05;11.60;99.70
11221;DHT22;8517;53.546;10.104;2024-03-08T15:26:35;11.60;99.10
11221;DHT22;8517;53.546;10.104;2024-03-08T15:29:02;11.60;99.20
11221;DHT22;8517;53.546;10.104;2024-03-08T15:31:31;11.60;98.50
11221;DHT22;8517;53.546;10.104;2024-03-08T15:34:00;11.60;98.10
11221;DHT22;8517;53.546;10.104;2024-03-08T15:36:30;11.60;97.00
11221;DHT22;8517;53.546;10.104;2024-03-08T15:38:58;11.60;97.60
11221;DHT22;8517;53.546;10.104;2024-03-08T15:41:25;11.60;97.80
11221;DHT22;8517;53.546;10.104;2024-03-08T15:43:53;11.50;97.90
11221;DHT22;8517;53.546;10.104;2024-03-08T15:46:20;11.50;98.30
11221;DHT22;8517;53.546;10.104;2024-03-08T15:48:49;11.50;98.30